Portada
METAR-TAF:

METAR-TAF

Aeropuertos :

Aeropuerto Internacional de Piarco

Puerto España, Trinidad, Trinidad y Tobago

latitud: 10-37N, longitud: 061-21W, altitud: 12 m

Observación

El informe se hizo hace 1 hora y 12 minutos, a las 19:00 UTC
Viento 12 kt del este-sureste
Temperatura 30°C
Humedad 55%
Presión 1012 hPa
Visibilidad 10 km o más
Escasas nubes a una altura de 3000 ft

METAR: TTPP 201900Z 12012KT 9999 FEW030 30/20 Q1012 NOSIG

Hora: 16:12 (20:12 UTC)

Pronóstico

El informe se hizo hace 4 horas y 12 minutos, a las 16:00 UTC
Pronóstico válido del 20 a las 18 UTC al 21 a las 18 UTC
Viento 15 kt del este-sureste
Visibilidad 10 km o más
Escasas nubes a una altura de 2500 ft
Evolucionando progresivamente
del 20 a las 23 UTC al 21 a las 01 UTC
Viento 5 kt del este

TAF: TTPP 201600Z 2018/2118 11015KT 9999 FEW025 BECMG 2023/2101 09005KT

Observaciones y pronósticos meteorológicos de más de 4000 aeropuertos (mensajes METAR y TAF).

Los puntos amarillos y rojos representan las estaciones disponibles.

Ponga el ratón en el punto deseado para ver el nombre de la estación.

Haga clic para ver las observaciones y los pronósticos meteorológicos.

Para cambiar el mapa : haga clic en los botones verdes con una cruz de color negro para hacer un zoom, en el botón verde con un guión para alejar o en las flechas verdes para mapas adyacentes.


METAR-TAF: